This is the latest recevied weather packets stored in our database for station/object IW9CSJ-13. If no packets are shown the sender has not sent any weather packets the latest 10 day(s).
| Time | Temp. | Humidity | Pressure | Rain* | Wind** | Luminosity | Snow |
|---|---|---|---|---|---|---|---|
| 1777401018 | 15° C | 68% | 1014.9 hPa | 0 mm | - | - | - |
| 1777399819 | 15.56° C | 77% | 1014.6 hPa | 0 mm | - | - | - |
| 1777399217 | 15.56° C | 76% | 1014.7 hPa | 0 mm | - | - | - |
| 1777398620 | 15.56° C | 77% | 1014.6 hPa | 0 mm | - | - | - |
| 1777398320 | 15.56° C | 77% | 1014.7 hPa | 0 mm | - | - | - |
| 1777397418 | 16.11° C | 77% | 1014.6 hPa | 0 mm | - | - | - |
| 1777393518 | 16.67° C | 69% | 1014.3 hPa | 0 mm | - | - | - |
| 1777392016 | 17.78° C | 62% | 1014.2 hPa | 0 mm | - | - | - |
| 1777390545 | 18.33° C | 55% | 1014.3 hPa | 0 mm | - | - | - |
| 1777385419 | 20.56° C | 33% | 1014.2 hPa | 0 mm | - | - | - |
| 1777385144 | 20.56° C | 36% | 1014.1 hPa | 0 mm | - | - | - |
| 1777384519 | 20.56° C | 34% | 1014.2 hPa | 0 mm | - | - | - |
| 1777381823 | 21.11° C | 31% | 1014.7 hPa | 0 mm | - | - | - |
| 1777380019 | 21.67° C | 25% | 1014.8 hPa | 0 mm | - | - | - |
| 1777379118 | 21.67° C | 26% | 1014.8 hPa | 0 mm | - | - | - |
| 1777377922 | 22.22° C | 26% | 1014.8 hPa | 0 mm | - | - | - |
| 1777377017 | 22.78° C | 28% | 1014.8 hPa | 0 mm | - | - | - |
| 1777376719 | 22.78° C | 29% | 1014.9 hPa | 0 mm | - | - | - |
| 1777376420 | 22.22° C | 31% | 1014.9 hPa | 0 mm | - | - | - |
| 1777372520 | 22.22° C | 39% | 1015 hPa | 0 mm | - | - | - |
| 1777366223 | 21.11° C | 43% | 1015.4 hPa | 0 mm | - | - | - |
| 1777365016 | 21.67° C | 45% | 1015.3 hPa | 0 mm | - | - | - |
| 1777360843 | 20.56° C | 58% | 1014.7 hPa | 0 mm | - | - | - |
| 1777358117 | 18.33° C | 62% | 1014.6 hPa | 0 mm | - | - | - |
| 1777354217 | 17.22° C | 64% | 1014.9 hPa | 0 mm | - | - | - |
* Rain latest hour (hover to see other rain measurements)
** Current wind speed in m/s (hover to see current wind gust speed)